Time;durP1;ratioP1;P1;durP2;ratioP2;P2;SDS_P1;SDS_P2;PMS_P1;PMS_P2;Temp;Humidity;BMP_temperature;BMP_pressure;BME280_temperature;BME280_humidity;BME280_pressure;Samples;Min_cycle;Max_cycle;Signal;HPM_P1;HPM_P2
2023/08/04 00:02:00;;;;;;;0.30;0.30;;;15.50;99.90;;;;;;4989175;28;20125;-61
2023/08/04 00:04:25;;;;;;;0.50;0.50;;;15.10;99.90;;;;;;4991039;28;20054;-63
2023/08/04 00:06:51;;;;;;;0.30;0.30;;;15.20;99.90;;;;;;4989173;28;20484;-63
2023/08/04 00:09:17;;;;;;;0.30;0.30;;;15.30;99.90;;;;;;4990325;28;20480;-63
2023/08/04 00:11:43;;;;;;;0.50;0.50;;;15.20;99.90;;;;;;4989729;28;20129;-62
2023/08/04 00:14:09;;;;;;;0.38;0.38;;;14.90;99.90;;;;;;4990333;28;20045;-62
2023/08/04 00:16:35;;;;;;;0.30;0.30;;;15.80;99.90;;;;;;4990399;28;20042;-62
2023/08/04 00:19:00;;;;;;;0.40;0.40;;;15.30;99.90;;;;;;4988701;28;20049;-62
2023/08/04 00:21:26;;;;;;;34.88;1.40;;;15.10;99.90;;;;;;4988230;28;20591;-62
2023/08/04 00:23:58;;;;;;;0.30;0.30;;;15.10;99.90;;;;;;5004002;28;20096;-63
2023/08/04 00:26:24;;;;;;;0.43;0.40;;;15.20;99.90;;;;;;4987206;28;20045;-62
2023/08/04 00:28:50;;;;;;;0.40;0.40;;;14.70;99.90;;;;;;4986970;28;20034;-62
2023/08/04 00:31:15;;;;;;;0.30;0.30;;;14.70;99.90;;;;;;4984765;28;20080;-61
2023/08/04 00:33:41;;;;;;;0.40;0.40;;;15.20;99.90;;;;;;4998482;28;20400;-63
2023/08/04 00:36:07;;;;;;;0.30;0.30;;;15.10;99.90;;;;;;4986434;28;20497;-62
2023/08/04 00:38:32;;;;;;;0.30;0.30;;;15.10;99.90;;;;;;4988549;28;20546;-62
2023/08/04 00:40:58;;;;;;;0.35;0.35;;;15.00;99.90;;;;;;4986646;28;20038;-61
2023/08/04 00:43:23;;;;;;;0.30;0.30;;;15.20;99.90;;;;;;4978072;28;20034;-62
2023/08/04 00:45:49;;;;;;;0.22;0.22;;;15.00;99.90;;;;;;4988618;28;20088;-62
2023/08/04 00:48:15;;;;;;;0.30;0.30;;;15.10;99.90;;;;;;4982786;28;20034;-62
2023/08/04 00:50:41;;;;;;;0.60;0.60;;;14.80;99.90;;;;;;4987706;28;20393;-61
2023/08/04 00:53:09;;;;;;;0.30;0.30;;;15.00;99.90;;;;;;4988806;28;20568;-62
2023/08/04 00:55:36;;;;;;;0.20;0.20;;;;;;;;;;4989957;28;20026;-61
2023/08/04 00:58:02;;;;;;;0.20;0.20;;;15.00;99.90;;;;;;4986609;28;20053;-62
2023/08/04 01:00:27;;;;;;;0.20;0.20;;;15.10;99.90;;;;;;4984859;28;20034;-62
2023/08/04 01:02:53;;;;;;;0.40;0.40;;;14.80;99.90;;;;;;4983786;28;20038;-61
2023/08/04 01:05:19;;;;;;;0.30;0.30;;;14.90;99.90;;;;;;4987970;28;20034;-63
2023/08/04 01:08:13;;;;;;;0.30;0.30;;;14.90;99.90;;;;;;4989057;28;20523;-63
2023/08/04 01:10:47;;;;;;;0.30;0.30;;;15.10;99.90;;;;;;4971328;28;20050;-62
2023/08/04 01:13:18;;;;;;;0.30;0.30;;;14.80;99.90;;;;;;4988533;28;20040;-61
2023/08/04 01:15:44;;;;;;;0.30;0.30;;;14.50;99.90;;;;;;4989302;28;20042;-61
2023/08/04 01:18:09;;;;;;;0.22;0.22;;;14.70;99.90;;;;;;4982463;28;20476;-62
2023/08/04 01:20:35;;;;;;;0.35;0.35;;;14.60;99.90;;;;;;4980607;28;20038;-63
2023/08/04 01:23:01;;;;;;;0.30;0.30;;;14.80;99.90;;;;;;4988025;28;20048;-62
2023/08/04 01:25:33;;;;;;;0.30;0.30;;;15.10;99.90;;;;;;4988655;28;20189;-61
2023/08/04 01:28:01;;;;;;;0.30;0.30;;;14.70;99.90;;;;;;4985209;28;20073;-62
2023/08/04 01:30:30;;;;;;;0.30;0.30;;;14.60;99.90;;;;;;4987191;28;20069;-61
2023/08/04 01:32:57;;;;;;;0.45;0.45;;;14.80;99.90;;;;;;5003790;28;20113;-62
2023/08/04 01:35:23;;;;;;;5.32;2.25;;;15.10;99.90;;;;;;4984710;28;20085;-61
2023/08/04 01:37:49;;;;;;;0.22;0.22;;;15.20;99.90;;;;;;4987963;28;20424;-62
2023/08/04 01:40:15;;;;;;;0.20;0.20;;;15.10;99.90;;;;;;4986559;28;20145;-62
2023/08/04 01:42:40;;;;;;;0.30;0.30;;;14.60;99.90;;;;;;4983510;28;20057;-62
2023/08/04 01:45:07;;;;;;;0.40;0.40;;;14.90;99.90;;;;;;4987214;28;20045;-62
2023/08/04 01:47:32;;;;;;;0.20;0.20;;;14.90;99.90;;;;;;4984341;28;20043;-62
2023/08/04 01:49:58;;;;;;;0.20;0.20;;;14.80;99.90;;;;;;4986749;28;20045;-61
2023/08/04 01:52:24;;;;;;;0.30;0.30;;;15.20;99.90;;;;;;4986035;28;20030;-61
2023/08/04 01:54:49;;;;;;;0.30;0.30;;;14.60;99.90;;;;;;4987046;28;20176;-62
2023/08/04 01:57:15;;;;;;;0.40;0.40;;;14.70;99.90;;;;;;4987838;28;20053;-62
2023/08/04 01:59:41;;;;;;;1.05;1.05;;;14.70;99.90;;;;;;4989554;28;20400;-62
2023/08/04 02:02:07;;;;;;;0.30;0.30;;;14.90;99.90;;;;;;4998786;28;20038;-61
2023/08/04 02:04:33;;;;;;;0.30;0.30;;;14.70;99.90;;;;;;4981112;28;20069;-62
2023/08/04 02:06:59;;;;;;;0.93;0.85;;;15.30;99.90;;;;;;4997081;28;20401;-61
2023/08/04 02:09:27;;;;;;;0.55;0.55;;;15.00;99.90;;;;;;4985791;28;20046;-61
2023/08/04 02:11:54;;;;;;;0.22;0.22;;;15.00;99.90;;;;;;4987347;28;20053;-61
2023/08/04 02:14:21;;;;;;;0.30;0.30;;;15.00;99.90;;;;;;4987399;28;20096;-62
2023/08/04 02:16:47;;;;;;;0.43;0.43;;;14.90;99.90;;;;;;4990441;28;20121;-62
2023/08/04 02:19:13;;;;;;;0.30;0.30;;;14.90;99.90;;;;;;4989249;28;20482;-62
2023/08/04 02:21:38;;;;;;;0.20;0.20;;;15.00;99.90;;;;;;4988978;28;20384;-62
2023/08/04 02:24:04;;;;;;;0.30;0.30;;;14.90;99.90;;;;;;4987783;28;20051;-62
2023/08/04 02:26:30;;;;;;;0.30;0.30;;;14.60;99.90;;;;;;4986690;28;20454;-63
2023/08/04 02:28:56;;;;;;;0.30;0.30;;;15.00;99.90;;;;;;4988762;28;20057;-61
2023/08/04 02:31:24;;;;;;;0.28;0.28;;;14.80;99.90;;;;;;4989150;28;20547;-62
2023/08/04 02:33:52;;;;;;;0.47;0.47;;;14.80;99.90;;;;;;4989106;28;20042;-62
2023/08/04 02:36:18;;;;;;;0.30;0.30;;;15.10;99.90;;;;;;4989174;28;20038;-62
2023/08/04 02:38:43;;;;;;;0.30;0.30;;;14.70;99.90;;;;;;4991563;28;20042;-62
2023/08/04 02:41:09;;;;;;;0.50;0.50;;;15.00;99.90;;;;;;4988890;28;20583;-62
2023/08/04 02:43:36;;;;;;;0.30;0.30;;;15.00;99.90;;;;;;4990750;28;20041;-61
2023/08/04 02:46:03;;;;;;;0.30;0.30;;;;;;;;;;4988077;28;20504;-62
2023/08/04 02:48:29;;;;;;;0.30;0.30;;;14.80;99.90;;;;;;4990116;28;20046;-63
2023/08/04 02:51:01;;;;;;;0.30;0.30;;;15.00;99.90;;;;;;4985054;28;20049;-61
2023/08/04 02:53:27;;;;;;;0.20;0.20;;;15.10;99.90;;;;;;4986002;28;20092;-62
2023/08/04 02:55:52;;;;;;;0.30;0.30;;;14.70;99.90;;;;;;4992141;28;20030;-61
2023/08/04 02:58:18;;;;;;;0.30;0.30;;;14.90;99.90;;;;;;4991917;28;20035;-62
2023/08/04 03:00:44;;;;;;;0.30;0.30;;;14.80;99.90;;;;;;4987577;28;20048;-62
2023/08/04 03:03:09;;;;;;;0.43;0.43;;;15.00;99.90;;;;;;4992349;28;20582;-60
2023/08/04 03:05:35;;;;;;;0.25;0.25;;;14.80;99.90;;;;;;4992296;28;20488;-62
2023/08/04 03:08:01;;;;;;;0.30;0.30;;;15.00;99.90;;;;;;4991265;28;20570;-62
2023/08/04 03:10:26;;;;;;;0.30;0.30;;;15.10;99.90;;;;;;4990873;28;20515;-61
2023/08/04 03:12:52;;;;;;;0.30;0.30;;;14.90;99.90;;;;;;4992045;28;20042;-63
2023/08/04 03:15:17;;;;;;;1.33;1.23;;;14.80;99.90;;;;;;4982659;28;20089;-63
2023/08/04 03:17:43;;;;;;;0.40;0.40;;;14.90;99.90;;;;;;4989860;28;20390;-61
2023/08/04 03:20:09;;;;;;;0.73;0.68;;;14.70;99.90;;;;;;4988023;28;20195;-61
2023/08/04 03:22:35;;;;;;;0.30;0.30;;;15.00;99.90;;;;;;4988759;28;20048;-62
2023/08/04 03:25:01;;;;;;;0.75;0.75;;;15.10;99.90;;;;;;4984625;28;20125;-62
2023/08/04 03:27:27;;;;;;;0.60;0.60;;;14.90;99.90;;;;;;4986339;28;20457;-62
2023/08/04 03:29:53;;;;;;;0.30;0.30;;;14.80;99.90;;;;;;4983088;28;20125;-63
2023/08/04 03:32:19;;;;;;;0.20;0.20;;;15.20;99.90;;;;;;4981624;28;20113;-63
2023/08/04 03:34:44;;;;;;;0.30;0.30;;;14.60;99.90;;;;;;4986251;28;20565;-63
2023/08/04 03:37:10;;;;;;;0.30;0.30;;;14.90;99.90;;;;;;4980032;28;20113;-63
2023/08/04 03:39:35;;;;;;;0.30;0.30;;;14.80;99.90;;;;;;4987437;28;20044;-61
2023/08/04 03:42:01;;;;;;;0.98;0.98;;;14.70;99.90;;;;;;4981750;28;20105;-63
2023/08/04 03:44:27;;;;;;;0.30;0.30;;;;;;;;;;4987472;28;20122;-63
2023/08/04 03:46:53;;;;;;;0.20;0.20;;;15.10;99.90;;;;;;4979994;28;20381;-63
2023/08/04 03:49:18;;;;;;;0.30;0.30;;;15.30;99.90;;;;;;4981725;28;20086;-62
2023/08/04 03:51:44;;;;;;;0.40;0.40;;;15.10;99.90;;;;;;4968547;28;20093;-62
2023/08/04 03:54:10;;;;;;;0.40;0.40;;;14.80;99.90;;;;;;4984872;28;20043;-62
2023/08/04 03:56:35;;;;;;;0.30;0.30;;;15.10;99.90;;;;;;4984230;28;20404;-62
2023/08/04 03:59:01;;;;;;;0.82;0.75;;;14.80;99.90;;;;;;4982171;28;20042;-62
2023/08/04 04:01:26;;;;;;;0.75;0.75;;;15.70;99.90;;;;;;4980087;28;20145;-62
2023/08/04 04:03:53;;;;;;;0.20;0.20;;;15.00;99.90;;;;;;4988170;28;20038;-62
2023/08/04 04:06:19;;;;;;;0.40;0.40;;;;;;;;;;4988821;28;20523;-63
2023/08/04 04:08:46;;;;;;;1.10;1.10;;;15.10;99.90;;;;;;4986941;28;20038;-61
2023/08/04 04:11:11;;;;;;;0.30;0.30;;;14.90;99.90;;;;;;4986759;28;20117;-62
2023/08/04 04:13:37;;;;;;;0.30;0.30;;;14.80;99.90;;;;;;4989531;28;20125;-62
2023/08/04 04:16:03;;;;;;;0.30;0.30;;;14.90;99.90;;;;;;4982284;28;20066;-62
2023/08/04 04:18:28;;;;;;;0.32;0.32;;;14.70;99.90;;;;;;4980220;28;20401;-62
2023/08/04 04:20:54;;;;;;;11.82;3.97;;;15.50;99.90;;;;;;4979675;28;20066;-62
2023/08/04 04:23:20;;;;;;;7.18;2.88;;;15.00;99.90;;;;;;4977419;28;20581;-62
2023/08/04 04:25:45;;;;;;;10.07;3.30;;;15.10;99.90;;;;;;4983212;28;20417;-63
2023/08/04 04:28:11;;;;;;;10.13;3.38;;;15.20;99.90;;;;;;4983062;28;20396;-62
2023/08/04 04:30:37;;;;;;;7.35;3.50;;;15.40;99.90;;;;;;4986693;28;20666;-62
2023/08/04 04:33:02;;;;;;;7.93;3.70;;;15.20;99.90;;;;;;4988604;28;20117;-62
2023/08/04 04:35:28;;;;;;;8.65;3.45;;;14.80;99.90;;;;;;4986778;28;20069;-63
2023/08/04 04:37:53;;;;;;;9.20;3.30;;;15.20;99.90;;;;;;4985365;28;20543;-63
2023/08/04 04:40:19;;;;;;;8.82;3.47;;;15.40;99.90;;;;;;4988780;28;20046;-61
2023/08/04 04:42:45;;;;;;;8.48;3.28;;;14.90;99.90;;;;;;4988410;28;20054;-63
2023/08/04 04:45:10;;;;;;;8.45;2.80;;;15.20;99.90;;;;;;4988983;28;20038;-61
2023/08/04 04:47:37;;;;;;;8.52;3.28;;;14.90;99.90;;;;;;4985845;28;20046;-63
2023/08/04 04:50:03;;;;;;;9.15;3.10;;;14.90;99.90;;;;;;4985045;28;20047;-63
2023/08/04 04:52:35;;;;;;;7.20;2.97;;;14.70;99.90;;;;;;4990071;28;20439;-63
2023/08/04 04:55:02;;;;;;;7.28;2.63;;;14.90;99.90;;;;;;4989566;28;20035;-63
2023/08/04 04:57:28;;;;;;;8.73;2.75;;;14.90;99.90;;;;;;4989857;28;20042;-63
2023/08/04 04:59:54;;;;;;;8.82;2.80;;;14.80;99.90;;;;;;4990129;28;20046;-64
2023/08/04 05:02:20;;;;;;;9.07;3.25;;;14.80;99.90;;;;;;4986668;28;20127;-62
2023/08/04 05:04:45;;;;;;;6.82;2.80;;;14.30;99.90;;;;;;4971662;28;20423;-62
2023/08/04 05:07:11;;;;;;;8.55;3.15;;;14.60;99.90;;;;;;4989955;28;20038;-62
2023/08/04 05:09:38;;;;;;;7.88;2.72;;;14.80;99.90;;;;;;4972018;28;20058;-63
2023/08/04 05:12:04;;;;;;;12.15;3.35;;;15.00;99.90;;;;;;4989173;28;20034;-63
2023/08/04 05:14:30;;;;;;;7.57;3.03;;;15.00;99.90;;;;;;4989082;28;20121;-64
2023/08/04 05:16:55;;;;;;;7.97;2.80;;;15.00;99.90;;;;;;4986810;28;20134;-63
2023/08/04 05:19:21;;;;;;;8.65;3.00;;;14.90;99.90;;;;;;4985267;28;20523;-62
2023/08/04 05:21:47;;;;;;;6.32;2.85;;;15.00;99.90;;;;;;4985774;28;20312;-63
2023/08/04 05:24:12;;;;;;;8.05;2.60;;;15.00;99.90;;;;;;4984788;28;20057;-63
2023/08/04 05:26:38;;;;;;;8.38;3.10;;;15.00;99.90;;;;;;4985068;28;20523;-62
2023/08/04 05:29:04;;;;;;;7.65;3.10;;;15.50;99.90;;;;;;4986064;28;20042;-62
2023/08/04 05:31:29;;;;;;;7.82;3.10;;;15.10;99.90;;;;;;4978522;28;20230;-63
2023/08/04 05:33:56;;;;;;;7.85;3.35;;;15.20;99.90;;;;;;4984173;28;20031;-63
2023/08/04 05:36:23;;;;;;;7.90;3.33;;;15.20;99.90;;;;;;4989167;28;20406;-64
2023/08/04 05:38:49;;;;;;;8.20;2.50;;;15.40;99.90;;;;;;4985036;28;20038;-63
2023/08/04 05:41:14;;;;;;;7.88;3.30;;;15.50;99.90;;;;;;4980858;28;20038;-61
2023/08/04 05:43:40;;;;;;;8.02;3.58;;;15.10;99.90;;;;;;4978489;28;20034;-64
2023/08/04 05:46:06;;;;;;;9.55;3.17;;;15.30;99.90;;;;;;4988353;28;20154;-63
2023/08/04 05:48:33;;;;;;;9.70;3.28;;;15.80;99.90;;;;;;4987563;28;20038;-62
2023/08/04 05:50:59;;;;;;;8.40;3.17;;;15.50;99.90;;;;;;4988376;28;20035;-63
2023/08/04 05:53:25;;;;;;;7.78;3.30;;;15.30;99.90;;;;;;4988233;28;20491;-63
2023/08/04 05:55:51;;;;;;;12.23;3.72;;;15.70;99.90;;;;;;4985542;28;20376;-63
2023/08/04 05:58:17;;;;;;;9.73;2.90;;;15.80;99.90;;;;;;4984397;28;20038;-63
2023/08/04 06:00:43;;;;;;;7.68;2.40;;;15.60;99.90;;;;;;4986435;28;20137;-63
2023/08/04 06:03:09;;;;;;;7.35;2.63;;;15.30;99.90;;;;;;4979345;28;20042;-63
2023/08/04 06:05:35;;;;;;;7.22;2.45;;;15.50;99.90;;;;;;4978674;28;20090;-63
2023/08/04 06:08:01;;;;;;;6.10;2.40;;;15.90;99.90;;;;;;4984958;28;20112;-63
2023/08/04 06:10:27;;;;;;;5.68;2.40;;;15.60;99.90;;;;;;4987982;28;20042;-63
2023/08/04 06:12:53;;;;;;;7.13;1.77;;;15.40;99.90;;;;;;4989544;28;20408;-63
2023/08/04 06:15:19;;;;;;;6.90;2.00;;;15.60;99.90;;;;;;4984232;28;20150;-62
2023/08/04 06:17:45;;;;;;;6.22;2.25;;;;;;;;;;4985906;28;20137;-63
2023/08/04 06:20:11;;;;;;;7.80;2.00;;;15.00;99.90;;;;;;4978241;28;20054;-63
2023/08/04 06:22:37;;;;;;;6.45;2.05;;;15.70;99.90;;;;;;4988580;28;20038;-62
2023/08/04 06:25:04;;;;;;;6.88;2.20;;;15.00;99.90;;;;;;4989929;28;20041;-63
2023/08/04 06:27:29;;;;;;;7.00;2.10;;;15.20;99.90;;;;;;4986382;28;20049;-62
2023/08/04 06:29:55;;;;;;;6.30;2.05;;;15.00;99.90;;;;;;4987229;28;20042;-64
2023/08/04 06:32:21;;;;;;;5.30;1.70;;;15.40;99.90;;;;;;4985501;28;20247;-63
2023/08/04 06:34:46;;;;;;;5.82;1.90;;;15.30;99.90;;;;;;4986150;28;20046;-63
2023/08/04 06:37:12;;;;;;;5.95;2.30;;;15.80;99.90;;;;;;4984133;28;20038;-63
2023/08/04 06:39:38;;;;;;;7.68;2.30;;;15.60;99.90;;;;;;4984691;28;20038;-63
2023/08/04 06:42:04;;;;;;;5.65;2.00;;;15.50;99.90;;;;;;4981745;28;20038;-63
2023/08/04 06:44:30;;;;;;;11.40;3.13;;;15.70;99.90;;;;;;4982906;28;20046;-63
2023/08/04 06:46:55;;;;;;;9.55;3.35;;;15.90;99.90;;;;;;4986699;28;20044;-63
2023/08/04 06:49:21;;;;;;;5.50;2.33;;;15.70;99.90;;;;;;4983150;28;20117;-62
2023/08/04 06:51:49;;;;;;;5.55;2.13;;;15.50;99.90;;;;;;4984979;28;20038;-63
2023/08/04 06:54:15;;;;;;;6.43;2.33;;;15.90;99.90;;;;;;4979509;28;20080;-63
2023/08/04 06:56:41;;;;;;;7.65;2.33;;;15.60;99.90;;;;;;4982825;28;20069;-62
2023/08/04 06:59:07;;;;;;;5.78;2.13;;;15.50;99.90;;;;;;4982204;28;20409;-62
2023/08/04 07:01:32;;;;;;;8.00;2.47;;;15.80;99.90;;;;;;4981035;28;20206;-63
2023/08/04 07:03:58;;;;;;;10.65;3.13;;;15.40;99.90;;;;;;4985260;28;20121;-63
2023/08/04 07:06:24;;;;;;;7.88;2.90;;;15.70;99.90;;;;;;4980591;28;20058;-63
2023/08/04 07:08:49;;;;;;;6.93;2.65;;;15.40;99.90;;;;;;4986182;28;20030;-63
2023/08/04 07:11:17;;;;;;;8.48;2.50;;;15.40;99.90;;;;;;4986894;28;20030;-63
2023/08/04 07:13:44;;;;;;;7.00;2.85;;;15.90;99.90;;;;;;4984494;28;20381;-61
2023/08/04 07:16:10;;;;;;;7.15;2.70;;;15.70;99.90;;;;;;4977597;28;20045;-63
2023/08/04 07:18:36;;;;;;;7.68;2.40;;;15.80;99.90;;;;;;4986151;28;20109;-63
2023/08/04 07:21:10;;;;;;;7.03;2.63;;;15.70;99.90;;;;;;4987721;28;20042;-62
2023/08/04 07:23:36;;;;;;;8.90;2.70;;;15.50;99.90;;;;;;4977451;28;20074;-63
2023/08/04 07:26:06;;;;;;;8.63;2.38;;;16.40;99.90;;;;;;4988101;28;20121;-63
2023/08/04 07:28:33;;;;;;;5.93;2.50;;;16.00;99.90;;;;;;4978460;28;20148;-63
2023/08/04 07:31:03;;;;;;;7.03;2.47;;;16.20;99.90;;;;;;4986565;28;20035;-63
2023/08/04 07:33:28;;;;;;;6.20;2.97;;;15.90;99.90;;;;;;4981774;28;20238;-63
2023/08/04 07:35:55;;;;;;;6.50;2.70;;;15.70;99.90;;;;;;4982325;28;20046;-63
2023/08/04 07:38:22;;;;;;;8.43;2.92;;;16.20;99.90;;;;;;4985261;28;20041;-61
2023/08/04 07:40:51;;;;;;;7.00;2.70;;;16.30;99.90;;;;;;4986698;28;20050;-63
2023/08/04 07:43:17;;;;;;;8.27;3.20;;;16.20;99.90;;;;;;4980286;28;20404;-63
2023/08/04 07:45:42;;;;;;;9.85;2.35;;;15.90;99.90;;;;;;5001180;28;20077;-63
2023/08/04 07:48:08;;;;;;;7.63;2.38;;;16.00;99.90;;;;;;4979980;28;20118;-63
2023/08/04 07:50:41;;;;;;;7.90;2.80;;;16.00;99.90;;;;;;4984672;28;20034;-63
2023/08/04 07:53:07;;;;;;;6.63;3.33;;;16.30;99.90;;;;;;4972865;28;20055;-63
2023/08/04 07:55:36;;;;;;;6.85;2.50;;;16.30;99.90;;;;;;4976754;28;20031;-63
2023/08/04 07:58:06;;;;;;;6.30;2.10;;;16.70;99.90;;;;;;4980245;28;20064;-62
2023/08/04 08:00:32;;;;;;;5.93;2.35;;;16.30;99.90;;;;;;4982639;28;20361;-62
2023/08/04 08:02:58;;;;;;;8.68;2.92;;;;;;;;;;4986114;28;20054;-62
2023/08/04 08:05:24;;;;;;;7.22;2.05;;;16.50;99.90;;;;;;4983001;28;20067;-63
2023/08/04 08:07:50;;;;;;;7.38;2.20;;;16.30;99.90;;;;;;4978037;28;20290;-63
2023/08/04 08:10:16;;;;;;;7.47;2.05;;;16.60;99.90;;;;;;4979667;28;20445;-63
2023/08/04 08:12:42;;;;;;;10.77;2.05;;;16.00;99.90;;;;;;4978923;28;20094;-63
2023/08/04 08:15:08;;;;;;;7.75;1.88;;;16.80;99.90;;;;;;4983373;28;20046;-64
2023/08/04 08:17:34;;;;;;;8.88;1.92;;;16.90;99.90;;;;;;4975422;28;20511;-63
2023/08/04 08:19:59;;;;;;;6.10;2.00;;;16.60;99.90;;;;;;4979842;28;20444;-61
2023/08/04 08:22:25;;;;;;;7.65;1.67;;;16.70;99.90;;;;;;4995594;28;20049;-63
2023/08/04 08:24:54;;;;;;;10.10;2.75;;;16.90;99.90;;;;;;4977533;28;20058;-63
2023/08/04 08:27:20;;;;;;;8.48;2.00;;;16.70;99.90;;;;;;4976125;28;20061;-62
2023/08/04 08:29:47;;;;;;;8.20;2.15;;;16.60;99.90;;;;;;4979979;28;20405;-63
2023/08/04 08:32:13;;;;;;;7.10;2.22;;;16.50;99.90;;;;;;4978535;28;20042;-63
2023/08/04 08:34:38;;;;;;;7.30;2.67;;;16.90;99.90;;;;;;4977466;28;20491;-63
2023/08/04 08:37:08;;;;;;;10.82;2.50;;;16.70;99.90;;;;;;4977883;28;20035;-62
2023/08/04 08:39:34;;;;;;;8.93;2.50;;;16.50;99.90;;;;;;4981407;28;20404;-62
2023/08/04 08:42:00;;;;;;;10.82;2.78;;;17.00;99.90;;;;;;4986479;28;20035;-63
2023/08/04 08:44:25;;;;;;;11.75;3.20;;;17.10;99.90;;;;;;4982982;28;20045;-64
2023/08/04 08:46:52;;;;;;;8.75;2.80;;;16.90;99.90;;;;;;4977331;28;20046;-63
2023/08/04 08:49:23;;;;;;;12.20;3.10;;;16.60;99.90;;;;;;4973768;28;20038;-63
2023/08/04 08:51:52;;;;;;;12.43;3.40;;;17.40;99.90;;;;;;4979270;28;20512;-62
2023/08/04 08:54:19;;;;;;;14.43;4.13;;;17.20;99.90;;;;;;4981456;28;20046;-64
2023/08/04 08:56:45;;;;;;;9.85;3.42;;;17.40;99.90;;;;;;4979011;28;20118;-63
2023/08/04 08:59:10;;;;;;;9.15;3.25;;;17.60;99.90;;;;;;4997874;28;20042;-62
2023/08/04 09:01:37;;;;;;;8.10;3.35;;;17.50;99.90;;;;;;4983434;28;20103;-63
2023/08/04 09:04:04;;;;;;;10.50;3.10;;;17.40;99.90;;;;;;4980908;28;20095;-64
2023/08/04 09:06:30;;;;;;;10.60;3.15;;;17.70;99.90;;;;;;4981622;28;20089;-62
2023/08/04 09:08:55;;;;;;;8.15;3.08;;;17.30;99.90;;;;;;4979587;28;20038;-63
2023/08/04 09:11:21;;;;;;;10.77;3.78;;;17.20;99.90;;;;;;4979365;28;20042;-63
2023/08/04 09:13:49;;;;;;;9.93;3.60;;;17.30;99.90;;;;;;4974566;28;20460;-62
2023/08/04 09:16:15;;;;;;;9.60;3.00;;;17.10;99.90;;;;;;4978038;28;20035;-63
2023/08/04 09:18:42;;;;;;;10.07;3.20;;;17.20;99.90;;;;;;4978359;28;20104;-62
2023/08/04 09:21:08;;;;;;;9.35;2.78;;;17.20;99.90;;;;;;4974299;28;20049;-63
2023/08/04 09:23:40;;;;;;;9.35;2.97;;;17.10;99.90;;;;;;4979633;28;20038;-63
2023/08/04 09:26:06;;;;;;;8.07;3.03;;;17.30;99.90;;;;;;4977399;28;20042;-63
2023/08/04 09:28:32;;;;;;;9.85;2.72;;;17.40;99.90;;;;;;4975893;28;20034;-63
2023/08/04 09:31:03;;;;;;;9.90;3.08;;;16.90;99.90;;;;;;4980005;28;20383;-64
2023/08/04 09:33:29;;;;;;;9.38;2.90;;;17.30;99.90;;;;;;4970258;28;20034;-63
2023/08/04 09:36:17;;;;;;;10.43;3.08;;;17.20;99.90;;;;;;4986649;28;20485;-63
2023/08/04 09:38:43;;;;;;;9.70;3.00;;;17.20;99.90;;;;;;4975995;28;20521;-62
2023/08/04 09:41:13;;;;;;;7.85;2.50;;;17.70;99.90;;;;;;4979907;28;20042;-63
2023/08/04 09:43:49;;;;;;;9.98;3.13;;;17.20;99.90;;;;;;4982213;28;20058;-63
2023/08/04 09:46:16;;;;;;;7.35;2.55;;;17.30;99.90;;;;;;4978843;28;20038;-61
2023/08/04 09:48:42;;;;;;;8.88;2.25;;;17.10;99.90;;;;;;4987336;28;20126;-62
2023/08/04 09:51:10;;;;;;;7.90;2.25;;;17.30;99.90;;;;;;4978101;28;20478;-63
2023/08/04 09:53:45;;;;;;;6.43;1.95;;;17.20;99.90;;;;;;4979391;28;20077;-63
2023/08/04 09:56:13;;;;;;;6.85;2.45;;;17.30;99.90;;;;;;4985324;28;20134;-63
2023/08/04 09:58:40;;;;;;;10.25;2.50;;;17.10;99.90;;;;;;4982527;28;20043;-63
2023/08/04 10:01:05;;;;;;;6.10;2.00;;;17.00;99.90;;;;;;4980458;28;20070;-62
2023/08/04 10:03:33;;;;;;;7.20;2.00;;;16.90;99.90;;;;;;4984747;28;20043;-63
2023/08/04 10:06:00;;;;;;;8.18;2.05;;;17.00;99.90;;;;;;4984513;28;20556;-63
2023/08/04 10:08:39;;;;;;;8.77;1.98;;;17.10;99.90;;;;;;4984733;28;20126;-63
2023/08/04 10:11:05;;;;;;;7.38;2.03;;;17.30;99.90;;;;;;4987503;28;20136;-63
2023/08/04 10:13:33;;;;;;;7.75;2.30;;;16.80;99.90;;;;;;4985382;28;21055;-63
2023/08/04 10:16:06;;;;;;;6.47;2.03;;;16.60;99.90;;;;;;4986774;28;20113;-63
2023/08/04 10:18:50;;;;;;;5.95;1.95;;;16.80;99.90;;;;;;4985940;28;20046;-63
2023/08/04 10:21:19;;;;;;;6.40;2.25;;;17.00;99.90;;;;;;4987119;28;20050;-62
2023/08/04 10:23:44;;;;;;;6.45;2.45;;;16.90;99.90;;;;;;4986771;28;20065;-64
2023/08/04 10:26:12;;;;;;;8.88;2.30;;;17.00;99.90;;;;;;4980168;28;20504;-63
2023/08/04 10:29:13;;;;;;;8.07;2.08;;;17.30;99.90;;;;;;4988028;28;20124;-64
2023/08/04 10:31:51;;;;;;;8.20;2.50;;;;;;;;;;4962125;28;20452;-63
2023/08/04 10:34:19;;;;;;;8.90;2.10;;;17.30;99.90;;;;;;4982082;28;20074;-63
2023/08/04 10:37:00;;;;;;;7.55;1.90;;;17.30;99.90;;;;;;4986368;28;20041;-63
2023/08/04 10:39:29;;;;;;;4.80;1.90;;;17.20;99.90;;;;;;4985395;28;20045;-64
2023/08/04 10:41:56;;;;;;;6.80;2.35;;;17.40;99.90;;;;;;4979697;28;20121;-63
2023/08/04 10:44:30;;;;;;;5.75;2.00;;;17.40;99.90;;;;;;4982980;28;20046;-64
2023/08/04 10:47:00;;;;;;;6.55;2.47;;;17.30;99.90;;;;;;4981749;28;20046;-62
2023/08/04 10:49:26;;;;;;;5.45;1.55;;;17.70;99.90;;;;;;4983055;28;20156;-64
2023/08/04 10:51:52;;;;;;;5.20;1.80;;;17.00;99.90;;;;;;4986399;28;20509;-64
2023/08/04 10:54:19;;;;;;;6.35;2.15;;;17.00;99.90;;;;;;4989518;28;20030;-64
2023/08/04 10:56:48;;;;;;;6.93;2.33;;;17.40;99.90;;;;;;4982826;28;20070;-64
2023/08/04 10:59:13;;;;;;;6.95;2.00;;;17.60;99.90;;;;;;4984896;28;20038;-64
2023/08/04 11:01:39;;;;;;;6.70;2.17;;;17.80;99.90;;;;;;4975915;28;20519;-63
2023/08/04 11:04:04;;;;;;;6.45;2.53;;;18.00;99.90;;;;;;4981936;28;20118;-63
2023/08/04 11:06:31;;;;;;;6.97;2.20;;;18.40;99.90;;;;;;4998319;28;20772;-63
2023/08/04 11:08:57;;;;;;;5.55;2.08;;;17.80;99.90;;;;;;4987011;28;20038;-64
2023/08/04 11:11:23;;;;;;;7.82;2.22;;;17.90;99.90;;;;;;4989882;28;20492;-63
2023/08/04 11:13:48;;;;;;;6.65;2.33;;;17.90;99.90;;;;;;4983229;28;20061;-63
2023/08/04 11:16:17;;;;;;;7.55;2.92;;;17.70;99.90;;;;;;4974816;28;20121;-63
2023/08/04 11:18:43;;;;;;;5.30;2.13;;;17.90;99.90;;;;;;4985373;28;20088;-63
2023/08/04 11:21:09;;;;;;;6.38;2.00;;;18.10;99.90;;;;;;4974154;28;20040;-64
2023/08/04 11:23:34;;;;;;;7.70;2.42;;;18.70;99.90;;;;;;4981618;28;20122;-64
2023/08/04 11:26:00;;;;;;;6.80;2.67;;;18.20;99.90;;;;;;4979267;28;20042;-64
2023/08/04 11:28:26;;;;;;;6.78;2.40;;;18.40;99.90;;;;;;4979693;28;20141;-64
2023/08/04 11:31:03;;;;;;;9.50;2.72;;;18.80;99.90;;;;;;4986554;28;20044;-63
2023/08/04 11:33:28;;;;;;;12.35;2.97;;;18.40;99.90;;;;;;4977855;28;20042;-62
2023/08/04 11:35:54;;;;;;;7.13;2.50;;;18.70;99.90;;;;;;4986140;28;20061;-63
2023/08/04 11:38:20;;;;;;;6.50;2.33;;;18.70;99.90;;;;;;4984432;28;20126;-64
2023/08/04 11:40:59;;;;;;;8.48;2.47;;;18.70;99.90;;;;;;4985388;28;20189;-64
2023/08/04 11:43:26;;;;;;;10.57;2.30;;;18.60;99.90;;;;;;4979408;28;20484;-64
2023/08/04 11:45:55;;;;;;;8.63;2.58;;;19.10;99.90;;;;;;4984204;28;20575;-64
2023/08/04 11:48:21;;;;;;;7.00;2.63;;;18.60;99.90;;;;;;4975840;28;20041;-64
2023/08/04 11:50:48;;;;;;;9.75;2.72;;;19.10;99.90;;;;;;4981524;28;20046;-63
2023/08/04 11:53:17;;;;;;;7.72;2.20;;;18.90;99.90;;;;;;4983755;28;20039;-64
2023/08/04 11:55:58;;;;;;;7.47;2.70;;;18.60;99.90;;;;;;4979427;28;20043;-64
2023/08/04 11:58:40;;;;;;;7.88;2.33;;;19.10;99.90;;;;;;4976374;28;20037;-63
2023/08/04 12:01:28;;;;;;;10.70;3.50;;;19.00;99.90;;;;;;4978182;28;20167;-64
2023/08/04 12:03:54;;;;;;;6.93;2.08;;;18.70;99.90;;;;;;4974575;28;20042;-63
2023/08/04 12:06:22;;;;;;;8.18;2.20;;;19.20;1.00;;;;;;4984713;28;20089;-64
2023/08/04 12:08:48;;;;;;;8.02;2.22;;;19.30;4.70;;;;;;4981216;28;20612;-64
2023/08/04 12:11:15;;;;;;;6.80;2.15;;;18.90;1.00;;;;;;4978856;28;20043;-63
2023/08/04 12:13:41;;;;;;;6.53;2.13;;;18.90;30.50;;;;;;4979086;28;20046;-64
2023/08/04 12:16:07;;;;;;;7.15;2.20;;;19.10;80.20;;;;;;4974750;28;20096;-64
2023/08/04 12:18:33;;;;;;;9.38;2.55;;;19.60;1.00;;;;;;4981942;28;20045;-64
2023/08/04 12:20:59;;;;;;;7.25;2.50;;;19.70;99.90;;;;;;4979585;28;20046;-63
2023/08/04 12:23:25;;;;;;;8.98;2.50;;;19.40;71.10;;;;;;4981146;28;20313;-64
2023/08/04 12:25:52;;;;;;;8.73;2.38;;;19.80;83.00;;;;;;4982403;28;20092;-63
2023/08/04 12:28:18;;;;;;;6.50;2.42;;;19.70;1.00;;;;;;4977425;28;20049;-63
2023/08/04 12:30:43;;;;;;;8.13;2.50;;;20.00;56.70;;;;;;4979579;28;20034;-62
2023/08/04 12:33:09;;;;;;;6.35;2.55;;;20.20;1.00;;;;;;4982450;28;20540;-62
2023/08/04 12:35:34;;;;;;;9.88;2.47;;;20.50;70.20;;;;;;4983953;28;20121;-64
2023/08/04 12:38:04;;;;;;;7.47;1.90;;;20.30;1.00;;;;;;4979823;28;20511;-63
2023/08/04 12:40:31;;;;;;;6.47;2.72;;;20.30;99.90;;;;;;4976402;28;20057;-63
2023/08/04 12:42:57;;;;;;;6.82;2.75;;;20.00;1.00;;;;;;4984282;28;20044;-63
2023/08/04 12:45:23;;;;;;;5.82;1.95;;;19.90;1.00;;;;;;4975851;28;20039;-64
2023/08/04 12:47:48;;;;;;;8.50;2.30;;;19.90;68.50;;;;;;4986811;28;20065;-63